Portada
METAR-TAF:

METAR-TAF

Aeroports :

Midway, Estats Units d'Amèrica

latitud: 28-13N, longitud: 177-22W, altitud: 4 m

Observació

L'informe es va fer fa 1 hora i 6 minuts, a les 00:56 UTC
Vent 7 kt del Nord
Temperatura 22°C
Humitat 57%
Pressió 1024 hPa
Visibilitat: 16.1 km
Cel clar

METAR: PMDY 270056Z AUTO 01007KT 10SM CLR 22/13 A3023 RMK AO2 SLP235 T02220128

Hora: 16:02 (02:02 UTC)

Pronòstic

L'informe es va fer fa 2 hores i 18 minuts, a les 23:44 UTC
Pronòstic vàlid del 27 a les 00 UTC al 27 a les 24 UTC
Vent 5 kt del Nord/Nord-Est
Visibilitat: 10 km
Escasses núvols a una alçada de 3500 ft
Núvols disperses a una alçada de 5000 ft

TAF: PMDY 262344Z 2700/2724 03005KT P6SM FEW035 SCT050

Observacions i pronòstics meteorològics de més de 4000 aeroports (METAR i TAF).

Les estacions disponibles són els punts grocs i vermells al mapa.

Posi el ratolí al punt desitjat per veure el nom de l'estació.

Feu clic per veure les observacions i els pronòstics meteorològics.

Per canviar el mapa: feu clic els botons verds amb una creu de color negre per apropar; al botó verd amb un guió per allunyar la imatge; o en les fletxes verdes per a mapes adjacents.


METAR-TAF: